createdAt,value
2019-02-25T00:00:14.594Z,1033.29
2019-02-25T00:01:14.586Z,1033.29
2019-02-25T00:02:14.581Z,1033.28
2019-02-25T00:03:14.563Z,1033.26
2019-02-25T00:04:14.553Z,1033.34
2019-02-25T00:05:14.595Z,1033.31
2019-02-25T00:06:14.532Z,1033.30
2019-02-25T00:07:14.527Z,1033.39
2019-02-25T00:08:14.517Z,1033.36
2019-02-25T00:09:14.501Z,1033.38
2019-02-25T00:10:14.494Z,1033.41
2019-02-25T00:11:14.489Z,1033.41
2019-02-25T00:12:14.478Z,1033.45
2019-02-25T00:13:14.478Z,1033.45
2019-02-25T00:14:14.462Z,1033.44
2019-02-25T00:15:14.450Z,1033.44
2019-02-25T00:16:14.439Z,1033.38
2019-02-25T00:17:14.433Z,1033.39
2019-02-25T00:18:14.423Z,1033.37
2019-02-25T00:19:14.409Z,1033.31
2019-02-25T00:20:14.401Z,1033.33
2019-02-25T00:21:14.388Z,1033.34
2019-02-25T00:22:14.377Z,1033.28
2019-02-25T00:23:14.374Z,1033.35
2019-02-25T00:24:14.363Z,1033.34
2019-02-25T00:25:14.353Z,1033.34
2019-02-25T00:26:14.339Z,1033.31
2019-02-25T00:27:14.337Z,1033.28
2019-02-25T00:28:14.325Z,1033.28
2019-02-25T00:29:14.317Z,1033.29
2019-02-25T00:30:14.308Z,1033.22
2019-02-25T00:31:14.294Z,1033.19
2019-02-25T00:32:14.286Z,1033.23
2019-02-25T00:33:14.275Z,1033.23
2019-02-25T00:34:14.266Z,1033.22
2019-02-25T00:35:14.260Z,1033.25
2019-02-25T00:36:14.250Z,1033.24
2019-02-25T00:37:14.238Z,1033.24
2019-02-25T00:38:14.229Z,1033.21
2019-02-25T00:39:14.213Z,1033.19
2019-02-25T00:40:14.203Z,1033.19
2019-02-25T00:41:14.199Z,1033.19
2019-02-25T00:42:14.191Z,1033.24
2019-02-25T00:43:14.176Z,1033.18
2019-02-25T00:44:14.165Z,1033.20
2019-02-25T00:45:14.159Z,1033.20
2019-02-25T00:46:14.149Z,1033.21
2019-02-25T00:47:14.145Z,1033.24
2019-02-25T00:48:14.134Z,1033.22
2019-02-25T00:49:14.125Z,1033.14
2019-02-25T00:50:14.116Z,1033.14
2019-02-25T00:51:14.103Z,1033.07
2019-02-25T00:52:14.092Z,1033.10
2019-02-25T00:53:14.079Z,1033.10
2019-02-25T00:54:14.070Z,1033.12
2019-02-25T00:55:14.066Z,1033.13
2019-02-25T00:56:14.057Z,1033.11
2019-02-25T00:57:14.042Z,1033.09
2019-02-25T00:58:14.031Z,1033.09
2019-02-25T00:59:14.028Z,1033.08
2019-02-25T01:00:14.016Z,1033.10
2019-02-25T01:01:14.008Z,1033.13
2019-02-25T01:02:14.000Z,1033.15
2019-02-25T01:03:13.987Z,1033.12
2019-02-25T01:04:13.975Z,1033.14
2019-02-25T01:05:13.967Z,1033.18
2019-02-25T01:06:13.957Z,1033.18
2019-02-25T01:07:13.953Z,1033.12
2019-02-25T01:08:13.940Z,1033.14
2019-02-25T01:09:13.928Z,1033.17
2019-02-25T01:10:13.921Z,1033.14
2019-02-25T01:11:13.905Z,1033.14
2019-02-25T01:12:13.895Z,1033.14
2019-02-25T01:13:13.892Z,1033.16
2019-02-25T01:14:13.882Z,1033.15
2019-02-25T01:15:13.870Z,1033.15
2019-02-25T01:16:13.857Z,1033.14
2019-02-25T01:17:13.850Z,1033.15
2019-02-25T01:18:13.841Z,1033.18
2019-02-25T01:19:13.835Z,1033.21
2019-02-25T01:20:13.825Z,1033.21
2019-02-25T01:21:13.814Z,1033.18
2019-02-25T01:22:13.804Z,1033.24
2019-02-25T01:23:13.790Z,1033.22
2019-02-25T01:24:13.779Z,1033.27
2019-02-25T01:25:13.772Z,1033.25
2019-02-25T01:26:13.764Z,1033.25
2019-02-25T01:27:13.758Z,1033.24
2019-02-25T01:28:13.748Z,1033.21
2019-02-25T01:29:13.734Z,1033.24
2019-02-25T01:30:13.725Z,1033.22
2019-02-25T01:31:13.722Z,1033.28
2019-02-25T01:32:13.709Z,1033.26
2019-02-25T01:33:13.697Z,1033.23
2019-02-25T01:34:13.689Z,1033.23
2019-02-25T01:35:13.674Z,1033.22
2019-02-25T01:36:13.668Z,1033.26
2019-02-25T01:37:13.653Z,1033.31
2019-02-25T01:38:15.629Z,1033.30
2019-02-25T01:39:13.641Z,1033.24
2019-02-25T01:40:13.634Z,1033.28
2019-02-25T01:41:13.623Z,1033.24
2019-02-25T01:42:13.611Z,1033.25
2019-02-25T01:43:13.598Z,1033.30
2019-02-25T01:44:13.587Z,1033.28
2019-02-25T01:45:13.582Z,1033.28
2019-02-25T01:46:13.572Z,1033.29
2019-02-25T01:47:13.558Z,1033.28
2019-02-25T01:48:13.549Z,1033.30
2019-02-25T01:49:13.536Z,1033.27
2019-02-25T01:50:13.525Z,1033.25
2019-02-25T01:51:13.521Z,1033.25
2019-02-25T01:52:13.510Z,1033.26
2019-02-25T01:53:13.499Z,1033.31
2019-02-25T01:54:13.490Z,1033.26
2019-02-25T01:55:13.474Z,1033.30
2019-02-25T01:56:13.465Z,1033.27
2019-02-25T01:57:13.459Z,1033.31
2019-02-25T01:58:13.448Z,1033.27
2019-02-25T01:59:13.443Z,1033.21
2019-02-25T02:00:13.432Z,1033.21
2019-02-25T02:01:13.417Z,1033.21
2019-02-25T02:02:13.407Z,1033.25
2019-02-25T02:03:13.400Z,1033.22
2019-02-25T02:04:13.391Z,1033.25
2019-02-25T02:05:13.379Z,1033.16
2019-02-25T02:06:13.369Z,1033.21
2019-02-25T02:07:13.361Z,1033.13
2019-02-25T02:08:13.343Z,1033.18
2019-02-25T02:09:13.333Z,1033.14
2019-02-25T02:10:13.323Z,1033.15
2019-02-25T02:11:13.319Z,1033.13
2019-02-25T02:12:13.307Z,1033.13
2019-02-25T02:13:14.465Z,1033.14
2019-02-25T02:14:13.290Z,1033.07
2019-02-25T02:15:13.275Z,1033.05
2019-02-25T02:16:13.266Z,1033.07
2019-02-25T02:17:13.258Z,1033.07
2019-02-25T02:18:13.248Z,1033.02
2019-02-25T02:19:13.234Z,1032.99
2019-02-25T02:20:13.223Z,1033.03
2019-02-25T02:21:13.210Z,1032.99
2019-02-25T02:22:13.201Z,1032.93
2019-02-25T02:23:13.194Z,1032.96
2019-02-25T02:24:13.184Z,1032.83
2019-02-25T02:25:13.189Z,1032.89
2019-02-25T02:26:13.168Z,1032.82
2019-02-25T02:27:13.152Z,1032.86
2019-02-25T02:28:13.141Z,1032.85
2019-02-25T02:29:13.131Z,1032.80
2019-02-25T02:30:13.119Z,1032.81
2019-02-25T02:31:13.113Z,1032.85
2019-02-25T02:32:13.102Z,1032.82
2019-02-25T02:33:13.087Z,1032.90
2019-02-25T02:34:13.078Z,1032.84
2019-02-25T02:35:13.070Z,1032.85
2019-02-25T02:36:13.062Z,1032.90
2019-02-25T02:37:13.051Z,1032.90
2019-02-25T02:38:13.041Z,1032.97
2019-02-25T02:39:13.030Z,1032.98
2019-02-25T02:40:13.013Z,1032.99
2019-02-25T02:41:13.012Z,1032.97
2019-02-25T02:42:12.998Z,1032.97
2019-02-25T02:43:12.989Z,1032.91
2019-02-25T02:44:12.978Z,1032.95
2019-02-25T02:45:12.969Z,1032.98
2019-02-25T02:46:12.956Z,1032.98
2019-02-25T02:47:12.941Z,1033.00
2019-02-25T02:48:12.931Z,1033.00
2019-02-25T02:49:12.927Z,1033.05
2019-02-25T02:50:12.916Z,1033.05
2019-02-25T02:51:12.901Z,1033.03
2019-02-25T02:52:12.891Z,1033.06
2019-02-25T02:53:12.882Z,1033.01
2019-02-25T02:54:12.869Z,1033.01
2019-02-25T02:55:12.865Z,1032.97
2019-02-25T02:56:12.853Z,1032.95
2019-02-25T02:57:12.846Z,1032.94
2019-02-25T02:58:12.835Z,1032.96
2019-02-25T02:59:12.821Z,1032.94
2019-02-25T03:00:12.810Z,1032.93
2019-02-25T03:01:12.795Z,1032.95
2019-02-25T03:02:12.785Z,1032.92
2019-02-25T03:03:12.781Z,1032.94
2019-02-25T03:04:12.770Z,1032.92
2019-02-25T03:05:12.755Z,1032.90
2019-02-25T03:06:12.747Z,1032.87
2019-02-25T03:07:12.741Z,1032.89
2019-02-25T03:08:12.730Z,1032.90
2019-02-25T03:09:12.722Z,1032.86
2019-02-25T03:10:12.712Z,1032.91
2019-02-25T03:11:12.697Z,1032.97
2019-02-25T03:12:12.714Z,1032.90
2019-02-25T03:13:12.684Z,1032.92
2019-02-25T03:14:12.666Z,1032.89
2019-02-25T03:15:12.661Z,1032.89
2019-02-25T03:16:12.651Z,1032.86
2019-02-25T03:17:12.638Z,1032.85
2019-02-25T03:18:12.628Z,1032.95
2019-02-25T03:19:12.614Z,1032.88
2019-02-25T03:20:12.610Z,1032.94
2019-02-25T03:21:12.595Z,1032.94
2019-02-25T03:22:12.593Z,1032.97
2019-02-25T03:23:12.570Z,1032.96
2019-02-25T03:24:12.561Z,1032.94
2019-02-25T03:25:12.556Z,1032.88
2019-02-25T03:26:12.543Z,1032.89
2019-02-25T03:27:12.537Z,1032.89
2019-02-25T03:28:12.525Z,1032.88
2019-02-25T03:29:12.513Z,1032.86
2019-02-25T03:30:12.505Z,1032.84
2019-02-25T03:31:12.493Z,1032.84
2019-02-25T03:32:12.487Z,1032.81
2019-02-25T03:33:12.495Z,1032.86
2019-02-25T03:34:12.460Z,1032.78
2019-02-25T03:35:12.454Z,1032.81
2019-02-25T03:36:12.441Z,1032.80
2019-02-25T03:37:12.426Z,1032.77
2019-02-25T03:38:12.416Z,1032.71
2019-02-25T03:39:12.412Z,1032.73
2019-02-25T03:40:12.399Z,1032.73
2019-02-25T03:41:12.387Z,1032.76
2019-02-25T03:42:12.376Z,1032.72
2019-02-25T03:43:12.361Z,1032.74
2019-02-25T03:44:12.350Z,1032.78
2019-02-25T03:45:12.340Z,1032.73
2019-02-25T03:46:12.328Z,1032.83
2019-02-25T03:47:12.323Z,1032.82
2019-02-25T03:48:12.314Z,1032.81
2019-02-25T03:49:12.302Z,1032.82
2019-02-25T03:50:12.295Z,1032.82
2019-02-25T03:51:12.278Z,1032.81
2019-02-25T03:52:12.278Z,1032.87
2019-02-25T03:53:12.261Z,1032.89
2019-02-25T03:54:12.251Z,1032.87
2019-02-25T03:55:12.235Z,1032.85
2019-02-25T03:56:12.224Z,1032.83
2019-02-25T03:57:12.210Z,1032.88
2019-02-25T03:58:12.201Z,1032.86
2019-02-25T03:59:12.196Z,1032.79
2019-02-25T04:00:12.184Z,1032.85
2019-02-25T04:01:12.173Z,1032.83
2019-02-25T04:02:12.163Z,1032.85
2019-02-25T04:03:12.145Z,1032.80
2019-02-25T04:04:12.135Z,1032.81
2019-02-25T04:05:12.127Z,1032.83
2019-02-25T04:06:12.117Z,1032.80
2019-02-25T04:07:12.110Z,1032.76
2019-02-25T04:08:12.100Z,1032.79
2019-02-25T04:09:12.086Z,1032.84
2019-02-25T04:10:12.073Z,1032.85
2019-02-25T04:11:12.071Z,1032.84
2019-02-25T04:12:12.055Z,1032.81
2019-02-25T04:13:12.042Z,1032.93
2019-02-25T04:14:12.034Z,1032.87
2019-02-25T04:15:12.016Z,1032.96
2019-02-25T04:16:12.012Z,1032.97
2019-02-25T04:17:11.995Z,1032.98
2019-02-25T04:18:11.984Z,1032.98
2019-02-25T04:19:11.977Z,1033.05
2019-02-25T04:20:11.967Z,1033.02
2019-02-25T04:21:11.959Z,1033.07
2019-02-25T04:22:11.948Z,1033.03
2019-02-25T04:23:11.935Z,1033.07
2019-02-25T04:24:11.920Z,1033.04
2019-02-25T04:25:11.915Z,1033.07
2019-02-25T04:26:11.905Z,1032.97
2019-02-25T04:27:11.889Z,1033.02
2019-02-25T04:28:11.881Z,1033.03
2019-02-25T04:29:11.867Z,1033.01
2019-02-25T04:30:11.858Z,1033.02
2019-02-25T04:31:11.848Z,1032.98
2019-02-25T04:32:11.836Z,1033.01
2019-02-25T04:33:11.827Z,1032.99
2019-02-25T04:34:11.815Z,1033.08
2019-02-25T04:35:11.798Z,1033.10
2019-02-25T04:36:11.787Z,1033.06
2019-02-25T04:37:11.780Z,1033.12
2019-02-25T04:38:11.766Z,1033.07
2019-02-25T04:39:11.761Z,1033.10
2019-02-25T04:40:11.750Z,1033.07
2019-02-25T04:41:11.735Z,1033.09
2019-02-25T04:42:11.728Z,1032.99
2019-02-25T04:43:11.718Z,1033.01
2019-02-25T04:44:11.706Z,1032.99
2019-02-25T04:45:11.697Z,1033.00
2019-02-25T04:46:11.690Z,1032.95
2019-02-25T04:47:11.674Z,1032.93
2019-02-25T04:48:11.654Z,1032.92
2019-02-25T04:49:11.647Z,1032.92
2019-02-25T04:50:11.635Z,1032.92
2019-02-25T04:51:11.677Z,1032.92
2019-02-25T04:52:11.615Z,1032.88
2019-02-25T04:53:11.607Z,1032.91
2019-02-25T04:54:11.596Z,1032.95
2019-02-25T04:55:11.580Z,1032.98
2019-02-25T04:56:11.569Z,1032.91
2019-02-25T04:57:11.567Z,1032.90
2019-02-25T04:58:11.552Z,1032.92
2019-02-25T04:59:11.546Z,1032.88
2019-02-25T05:00:11.533Z,1032.90
2019-02-25T05:01:11.511Z,1032.90
2019-02-25T05:02:11.502Z,1032.88
2019-02-25T05:03:11.496Z,1032.93
2019-02-25T05:04:11.485Z,1032.84
2019-02-25T05:05:11.474Z,1032.86
2019-02-25T05:06:11.462Z,1032.86
2019-02-25T05:07:11.449Z,1032.85
2019-02-25T05:08:11.435Z,1032.87
2019-02-25T05:09:11.427Z,1032.82
2019-02-25T05:10:11.417Z,1032.83
2019-02-25T05:11:11.410Z,1032.79
2019-02-25T05:12:11.400Z,1032.81
2019-02-25T05:13:11.387Z,1032.74
2019-02-25T05:14:11.371Z,1032.76
2019-02-25T05:15:11.373Z,1032.76
2019-02-25T05:16:11.354Z,1032.82
2019-02-25T05:17:11.350Z,1032.84
2019-02-25T05:18:11.336Z,1032.84
2019-02-25T05:19:11.316Z,1032.85
2019-02-25T05:20:11.306Z,1032.85
2019-02-25T05:21:11.297Z,1032.83
2019-02-25T05:22:11.285Z,1032.83
2019-02-25T05:23:11.276Z,1032.80
2019-02-25T05:24:11.270Z,1032.77
2019-02-25T05:25:11.265Z,1032.74
2019-02-25T05:26:11.246Z,1032.74
2019-02-25T05:27:11.232Z,1032.79
2019-02-25T05:28:11.220Z,1032.77
2019-02-25T05:29:11.215Z,1032.84
2019-02-25T05:30:11.213Z,1032.87
2019-02-25T05:31:11.190Z,1032.88
2019-02-25T05:32:11.177Z,1032.88
2019-02-25T05:33:11.171Z,1032.90
2019-02-25T05:34:11.154Z,1032.94
2019-02-25T05:35:11.146Z,1032.94
2019-02-25T05:36:11.136Z,1032.99
2019-02-25T05:37:11.128Z,1032.96
2019-02-25T05:38:11.117Z,1033.00
2019-02-25T05:39:11.102Z,1033.01
2019-02-25T05:40:11.091Z,1033.05
2019-02-25T05:41:11.077Z,1033.01
2019-02-25T05:42:11.065Z,1032.98
2019-02-25T05:43:11.059Z,1033.01
2019-02-25T05:44:11.047Z,1033.05
2019-02-25T05:45:11.037Z,1033.07
2019-02-25T05:46:11.020Z,1033.04
2019-02-25T05:47:11.016Z,1033.00
2019-02-25T05:48:11.004Z,1032.94
2019-02-25T05:49:10.999Z,1032.93
2019-02-25T05:50:10.989Z,1032.93
2019-02-25T05:51:10.976Z,1032.94
2019-02-25T05:52:10.955Z,1032.86
2019-02-25T05:53:10.946Z,1032.84
2019-02-25T05:54:10.935Z,1032.81
2019-02-25T05:55:10.931Z,1032.81
2019-02-25T05:56:10.922Z,1032.81
2019-02-25T05:57:10.904Z,1032.79
2019-02-25T05:58:10.892Z,1032.78
2019-02-25T05:59:10.877Z,1032.78
2019-02-25T06:00:10.865Z,1032.74
2019-02-25T06:01:10.859Z,1032.78
2019-02-25T06:02:10.848Z,1032.79
2019-02-25T06:03:10.833Z,1032.80
2019-02-25T06:04:10.821Z,1032.83
2019-02-25T06:05:10.812Z,1032.81
2019-02-25T06:06:10.801Z,1032.83
2019-02-25T06:07:10.795Z,1032.79
2019-02-25T06:08:10.783Z,1032.82
2019-02-25T06:09:10.772Z,1032.81
2019-02-25T06:10:10.763Z,1032.79
2019-02-25T06:11:10.745Z,1032.86
2019-02-25T06:12:10.732Z,1032.81
2019-02-25T06:13:10.718Z,1032.89
2019-02-25T06:14:10.709Z,1032.85
2019-02-25T06:15:10.700Z,1032.85
2019-02-25T06:16:10.691Z,1032.86
2019-02-25T06:17:10.674Z,1032.88
2019-02-25T06:18:10.664Z,1032.92
2019-02-25T06:19:10.657Z,1032.95
2019-02-25T06:20:10.644Z,1032.98
2019-02-25T06:21:10.636Z,1032.96
2019-02-25T06:22:10.631Z,1032.95
2019-02-25T06:23:10.608Z,1032.97
2019-02-25T06:24:10.597Z,1032.90
2019-02-25T06:25:10.586Z,1032.96
2019-02-25T06:26:10.575Z,1033.03
2019-02-25T06:27:10.568Z,1033.00
2019-02-25T06:28:10.558Z,1032.98
2019-02-25T06:29:10.544Z,1032.99
2019-02-25T06:30:10.532Z,1033.01
2019-02-25T06:31:10.522Z,1033.02
2019-02-25T06:32:10.503Z,1033.05
2019-02-25T06:33:10.505Z,1033.07
2019-02-25T06:34:10.489Z,1033.09
2019-02-25T06:35:10.473Z,1033.12
2019-02-25T06:36:10.459Z,1033.10
2019-02-25T06:37:10.450Z,1033.12
2019-02-25T06:38:10.438Z,1033.11
2019-02-25T06:39:10.436Z,1033.11
2019-02-25T06:40:10.420Z,1033.15
2019-02-25T06:41:10.407Z,1033.14
2019-02-25T06:42:10.396Z,1033.12
2019-02-25T06:43:10.382Z,1033.17
2019-02-25T06:44:10.368Z,1033.17
2019-02-25T06:45:10.359Z,1033.15
2019-02-25T06:46:10.349Z,1033.15
2019-02-25T06:47:10.341Z,1033.19
2019-02-25T06:48:10.328Z,1033.23
2019-02-25T06:49:10.314Z,1033.21
2019-02-25T06:50:10.302Z,1033.29
2019-02-25T06:51:10.296Z,1033.36
2019-02-25T06:52:10.283Z,1033.49
2019-02-25T06:53:10.270Z,1033.51
2019-02-25T06:54:10.264Z,1033.55
2019-02-25T06:55:10.247Z,1033.59
2019-02-25T06:56:10.233Z,1033.65
2019-02-25T06:57:10.222Z,1033.62
2019-02-25T06:58:10.212Z,1033.66
2019-02-25T06:59:10.206Z,1033.65
2019-02-25T07:00:10.196Z,1033.70
2019-02-25T07:01:10.188Z,1033.77
2019-02-25T07:02:10.177Z,1033.81
2019-02-25T07:03:10.163Z,1033.87
2019-02-25T07:04:10.157Z,1033.85
2019-02-25T07:05:10.148Z,1033.87
2019-02-25T07:06:10.140Z,1033.87
2019-02-25T07:07:10.126Z,1033.92
2019-02-25T07:08:10.118Z,1033.85
2019-02-25T07:09:10.107Z,1033.76
2019-02-25T07:10:10.100Z,1033.55
2019-02-25T07:11:10.097Z,1033.39
2019-02-25T07:12:10.087Z,1033.38
2019-02-25T07:13:10.079Z,1033.39
2019-02-25T07:14:10.074Z,1033.38
2019-02-25T07:15:10.063Z,1033.51
2019-02-25T07:16:10.060Z,1033.78
2019-02-25T07:17:10.048Z,1033.95
2019-02-25T07:18:10.042Z,1034.00
2019-02-25T07:19:10.042Z,1034.00
2019-02-25T07:20:10.032Z,1034.04
2019-02-25T07:21:10.021Z,1034.12
2019-02-25T07:22:10.015Z,1034.13
2019-02-25T07:23:10.012Z,1034.18
2019-02-25T07:24:10.009Z,1034.12
2019-02-25T07:25:09.998Z,1034.13
2019-02-25T07:26:09.991Z,1034.13
2019-02-25T07:27:09.981Z,1034.15
2019-02-25T07:28:09.974Z,1034.23
2019-02-25T07:29:09.970Z,1034.18
2019-02-25T07:30:09.964Z,1034.17
2019-02-25T07:31:09.965Z,1034.13
2019-02-25T07:32:09.959Z,1034.21
2019-02-25T07:33:09.958Z,1034.22
2019-02-25T07:34:09.956Z,1034.19
2019-02-25T07:35:09.952Z,1034.09
2019-02-25T07:36:09.946Z,1034.17
2019-02-25T07:37:09.946Z,1034.13
2019-02-25T07:38:09.958Z,1034.20
2019-02-25T07:39:09.936Z,1034.27
2019-02-25T07:40:09.932Z,1034.34
2019-02-25T07:41:09.927Z,1034.33
2019-02-25T07:42:09.929Z,1034.33
2019-02-25T07:43:09.928Z,1034.33
2019-02-25T07:44:09.928Z,1034.41
2019-02-25T07:45:09.928Z,1034.41
2019-02-25T07:46:09.926Z,1034.45
2019-02-25T07:47:09.922Z,1034.52
2019-02-25T07:48:09.920Z,1034.52
2019-02-25T07:49:09.917Z,1034.52
2019-02-25T07:50:09.918Z,1034.59
2019-02-25T07:51:09.921Z,1034.59
2019-02-25T07:52:09.921Z,1034.60
2019-02-25T07:53:09.916Z,1034.65
2019-02-25T07:54:09.915Z,1034.69
2019-02-25T07:55:09.923Z,1034.69
2019-02-25T07:56:09.922Z,1034.72
2019-02-25T07:57:09.923Z,1034.68
2019-02-25T07:58:09.926Z,1034.78
2019-02-25T07:59:09.927Z,1034.76
2019-02-25T08:00:09.927Z,1034.79
2019-02-25T08:01:09.926Z,1034.84
2019-02-25T08:02:09.929Z,1034.84
2019-02-25T08:03:09.934Z,1034.86
2019-02-25T08:04:09.936Z,1034.93
2019-02-25T08:05:09.937Z,1034.94
2019-02-25T08:06:11.907Z,1034.93
2019-02-25T08:07:09.937Z,1034.92
2019-02-25T08:08:09.938Z,1034.98
2019-02-25T08:09:09.947Z,1035.01
2019-02-25T08:10:09.950Z,1035.03
2019-02-25T08:11:09.949Z,1034.99
2019-02-25T08:12:09.956Z,1035.03
2019-02-25T08:13:09.958Z,1035.04
2019-02-25T08:14:09.961Z,1034.99
2019-02-25T08:15:09.972Z,1035.07
2019-02-25T08:16:09.973Z,1035.08
2019-02-25T08:17:09.977Z,1035.06
2019-02-25T08:18:09.984Z,1035.12
2019-02-25T08:19:09.981Z,1035.14
2019-02-25T08:20:09.989Z,1035.16
2019-02-25T08:21:09.987Z,1035.18
2019-02-25T08:22:09.993Z,1035.22
2019-02-25T08:23:10.003Z,1035.22
2019-02-25T08:24:10.009Z,1035.23
2019-02-25T08:25:10.007Z,1035.25
2019-02-25T08:26:10.014Z,1035.27
2019-02-25T08:27:10.024Z,1035.28
2019-02-25T08:28:10.030Z,1035.35
2019-02-25T08:29:10.037Z,1035.33
2019-02-25T08:30:10.042Z,1035.30
2019-02-25T08:31:10.043Z,1035.38
2019-02-25T08:32:10.048Z,1035.35
2019-02-25T08:33:10.055Z,1035.41
2019-02-25T08:34:18.347Z,1034.57
2019-02-25T08:35:10.070Z,1034.51
2019-02-25T08:36:10.076Z,1034.56
2019-02-25T08:37:10.086Z,1034.55
2019-02-25T08:38:10.086Z,1034.57
2019-02-25T08:39:10.088Z,1034.57
2019-02-25T08:40:11.617Z,1034.55
2019-02-25T08:41:10.150Z,1034.58
2019-02-25T08:42:10.111Z,1034.58
2019-02-25T08:43:10.113Z,1034.60
2019-02-25T08:44:10.117Z,1034.57
2019-02-25T08:45:10.126Z,1034.58
2019-02-25T08:46:10.135Z,1034.60
2019-02-25T08:47:10.144Z,1034.61
2019-02-25T08:48:10.151Z,1034.63
2019-02-25T08:49:10.150Z,1034.65
2019-02-25T08:50:10.156Z,1034.69
2019-02-25T08:51:10.169Z,1034.66
2019-02-25T08:52:10.175Z,1034.73
2019-02-25T08:53:10.184Z,1034.75
2019-02-25T08:54:10.192Z,1034.77
2019-02-25T08:55:10.194Z,1034.78
2019-02-25T08:56:10.200Z,1034.74
2019-02-25T08:57:10.214Z,1034.75
2019-02-25T08:58:10.218Z,1034.83
2019-02-25T08:59:10.224Z,1034.80
2019-02-25T09:00:10.229Z,1034.83
2019-02-25T09:01:10.233Z,1034.86
2019-02-25T09:02:10.244Z,1034.86
2019-02-25T09:03:10.254Z,1034.81
2019-02-25T09:04:10.262Z,1034.84
2019-02-25T09:05:10.269Z,1034.86
2019-02-25T09:06:10.332Z,1034.88
2019-02-25T09:07:10.286Z,1034.82
2019-02-25T09:08:10.291Z,1034.82
2019-02-25T09:09:10.299Z,1034.88
2019-02-25T09:10:10.307Z,1034.86
2019-02-25T09:11:14.166Z,1034.87
2019-02-25T09:12:10.327Z,1034.92
2019-02-25T09:13:10.331Z,1034.88
2019-02-25T09:14:10.343Z,1034.93
2019-02-25T09:15:10.352Z,1034.94
2019-02-25T09:16:10.363Z,1034.93
2019-02-25T09:17:10.368Z,1034.96
2019-02-25T09:18:10.377Z,1034.95
2019-02-25T09:19:10.381Z,1034.97
2019-02-25T09:20:10.389Z,1035.01
2019-02-25T09:21:10.399Z,1034.99
2019-02-25T09:22:10.409Z,1035.01
2019-02-25T09:23:10.421Z,1035.04
2019-02-25T09:24:10.431Z,1035.03
2019-02-25T09:25:10.444Z,1035.10
2019-02-25T09:26:11.902Z,1035.06
2019-02-25T09:27:10.457Z,1035.08
2019-02-25T09:28:10.467Z,1035.12
2019-02-25T09:29:10.479Z,1035.06
2019-02-25T09:30:10.490Z,1035.05
2019-02-25T09:31:10.495Z,1035.06
2019-02-25T09:32:10.509Z,1035.04
2019-02-25T09:33:10.513Z,1035.04
2019-02-25T09:34:11.810Z,1035.05
2019-02-25T09:35:10.536Z,1034.97
2019-02-25T09:36:10.546Z,1035.00
2019-02-25T09:37:10.557Z,1035.03
2019-02-25T09:38:10.566Z,1035.08
2019-02-25T09:39:10.574Z,1035.10
2019-02-25T09:40:10.583Z,1035.18
2019-02-25T09:41:10.596Z,1035.32
2019-02-25T09:42:10.610Z,1035.37
2019-02-25T09:43:10.625Z,1035.42
2019-02-25T09:44:10.634Z,1035.51
2019-02-25T09:45:10.640Z,1035.55
2019-02-25T09:46:10.651Z,1035.57
2019-02-25T09:47:10.667Z,1035.53
2019-02-25T09:48:10.679Z,1035.41
2019-02-25T09:49:10.686Z,1035.42
2019-02-25T09:50:10.698Z,1035.42
2019-02-25T09:51:11.375Z,1035.40
2019-02-25T09:52:10.719Z,1035.45
2019-02-25T09:53:10.731Z,1035.48
2019-02-25T09:54:10.741Z,1035.40
2019-02-25T09:55:10.758Z,1035.44
2019-02-25T09:56:10.773Z,1035.43
2019-02-25T09:57:10.777Z,1035.41
2019-02-25T09:58:10.791Z,1035.40
2019-02-25T09:59:10.797Z,1035.36
2019-02-25T10:00:10.808Z,1035.29
2019-02-25T10:01:10.825Z,1035.23
2019-02-25T10:02:10.835Z,1035.11
2019-02-25T10:03:10.843Z,1035.08
2019-02-25T10:04:10.854Z,1035.09
2019-02-25T10:05:10.870Z,1035.12
2019-02-25T10:06:12.872Z,1035.13
2019-02-25T10:07:10.899Z,1035.13
2019-02-25T10:08:10.910Z,1035.13
2019-02-25T10:09:10.919Z,1035.12
2019-02-25T10:10:10.932Z,1035.13
2019-02-25T10:11:10.940Z,1035.10
2019-02-25T10:12:10.952Z,1035.17
2019-02-25T10:13:10.960Z,1035.11
2019-02-25T10:14:10.971Z,1035.09
2019-02-25T10:15:10.990Z,1035.06
2019-02-25T10:16:11.000Z,1035.07
2019-02-25T10:17:11.007Z,1035.05
2019-02-25T10:18:11.024Z,1035.04
2019-02-25T10:19:11.037Z,1035.04
2019-02-25T10:20:11.051Z,1034.97
2019-02-25T10:21:11.064Z,1034.98
2019-02-25T10:22:11.074Z,1035.06
2019-02-25T10:23:11.084Z,1034.97
2019-02-25T10:24:11.097Z,1034.99
2019-02-25T10:25:11.105Z,1034.97
2019-02-25T10:26:11.116Z,1034.96
2019-02-25T10:27:11.132Z,1034.97
2019-02-25T10:28:11.143Z,1034.95
2019-02-25T10:29:11.155Z,1034.91
2019-02-25T10:30:11.164Z,1034.91
2019-02-25T10:31:13.043Z,1034.93
2019-02-25T10:32:11.178Z,1034.89
2019-02-25T10:33:11.203Z,1034.90
2019-02-25T10:34:11.207Z,1034.88
2019-02-25T10:35:11.214Z,1034.95
2019-02-25T10:36:11.223Z,1034.96
2019-02-25T10:37:13.041Z,1034.88
2019-02-25T10:38:11.247Z,1034.91
2019-02-25T10:39:12.996Z,1034.94
2019-02-25T10:40:12.914Z,1034.96
2019-02-25T10:41:11.286Z,1034.92
2019-02-25T10:42:11.295Z,1034.96
2019-02-25T10:43:11.303Z,1034.98
2019-02-25T10:44:11.314Z,1035.00
2019-02-25T10:45:13.340Z,1034.96
2019-02-25T10:46:13.481Z,1034.93
2019-02-25T10:47:13.132Z,1034.92
2019-02-25T10:48:11.359Z,1034.90
2019-02-25T10:49:11.813Z,1034.88
2019-02-25T10:50:11.378Z,1034.85
2019-02-25T10:51:13.182Z,1034.89
2019-02-25T10:52:12.884Z,1034.87
2019-02-25T10:53:13.588Z,1034.87
2019-02-25T10:54:11.425Z,1034.84
2019-02-25T10:55:11.430Z,1034.78
2019-02-25T10:56:11.441Z,1034.81
2019-02-25T10:57:11.448Z,1034.81
2019-02-25T10:58:11.462Z,1034.75
2019-02-25T10:59:11.476Z,1034.75
2019-02-25T11:00:12.041Z,1034.77
2019-02-25T11:01:13.390Z,1034.75
2019-02-25T11:02:13.191Z,1034.75
2019-02-25T11:03:12.825Z,1034.71
2019-02-25T11:04:11.529Z,1034.70
2019-02-25T11:05:11.542Z,1034.70
2019-02-25T11:06:11.552Z,1034.62
2019-02-25T11:07:11.571Z,1034.64
2019-02-25T11:08:13.681Z,1034.64
2019-02-25T11:09:13.402Z,1034.61
2019-02-25T11:10:12.069Z,1034.64
2019-02-25T11:11:11.601Z,1034.63
2019-02-25T11:12:11.611Z,1034.63
2019-02-25T11:13:11.621Z,1034.60
2019-02-25T11:14:11.631Z,1034.55
2019-02-25T11:15:13.350Z,1034.53
2019-02-25T11:16:12.403Z,1034.45
2019-02-25T11:17:11.659Z,1034.48
2019-02-25T11:18:11.670Z,1034.44
2019-02-25T11:19:11.685Z,1034.43
2019-02-25T11:20:11.694Z,1034.43
2019-02-25T11:21:11.698Z,1034.33
2019-02-25T11:22:13.736Z,1034.28
2019-02-25T11:23:12.853Z,1034.26
2019-02-25T11:24:11.731Z,1034.26
2019-02-25T11:25:11.739Z,1034.20
2019-02-25T11:26:11.751Z,1034.23
2019-02-25T11:27:11.757Z,1034.22
2019-02-25T11:28:23.578Z,1034.24
2019-02-25T11:29:13.716Z,1034.21
2019-02-25T11:30:12.550Z,1034.17
2019-02-25T11:31:11.797Z,1034.15
2019-02-25T11:32:11.806Z,1034.19
2019-02-25T11:33:11.816Z,1034.16
2019-02-25T11:34:11.827Z,1034.15
2019-02-25T11:35:13.015Z,1034.11
2019-02-25T11:36:12.798Z,1034.15
2019-02-25T11:37:11.852Z,1034.10
2019-02-25T11:38:11.859Z,1034.10
2019-02-25T11:39:11.863Z,1034.06
2019-02-25T11:40:11.868Z,1034.05
2019-02-25T11:41:11.874Z,1033.94
2019-02-25T11:42:13.512Z,1033.93
2019-02-25T11:43:13.257Z,1033.90
2019-02-25T11:44:11.901Z,1033.93
2019-02-25T11:45:11.906Z,1033.94
2019-02-25T11:46:11.917Z,1033.88
2019-02-25T11:47:11.915Z,1033.90
2019-02-25T11:48:11.921Z,1033.85
2019-02-25T11:49:11.933Z,1033.86
2019-02-25T11:50:11.935Z,1033.74
2019-02-25T11:51:11.945Z,1033.72
2019-02-25T11:52:11.949Z,1033.71
2019-02-25T11:53:11.950Z,1033.64
2019-02-25T11:54:11.956Z,1033.63
2019-02-25T11:55:11.962Z,1033.61
2019-02-25T11:56:11.967Z,1033.58
2019-02-25T11:57:11.969Z,1033.60
2019-02-25T11:58:11.971Z,1033.59
2019-02-25T11:59:11.971Z,1033.57
2019-02-25T12:00:11.973Z,1033.56
2019-02-25T12:01:11.978Z,1033.61
2019-02-25T12:02:11.982Z,1033.53
2019-02-25T12:03:11.988Z,1033.54
2019-02-25T12:04:12.000Z,1033.50
2019-02-25T12:05:11.991Z,1033.54